createdAt,value
2019-04-21T00:00:31.992Z,56.40
2019-04-21T00:03:08.911Z,56.10
2019-04-21T00:05:53.243Z,56.40
2019-04-21T00:08:30.966Z,56.50
2019-04-21T00:10:57.868Z,56.90
2019-04-21T00:13:21.099Z,57.60
2019-04-21T00:15:44.209Z,57.30
2019-04-21T00:18:19.066Z,57.90
2019-04-21T00:20:52.708Z,58.10
2019-04-21T00:23:37.775Z,57.20
2019-04-21T00:26:02.031Z,57.60
2019-04-21T00:28:42.790Z,57.60
2019-04-21T00:31:09.877Z,57.70
2019-04-21T00:33:30.068Z,56.50
2019-04-21T00:36:02.100Z,55.80
2019-04-21T00:39:03.053Z,55.90
2019-04-21T00:41:19.068Z,55.90
2019-04-21T00:43:44.731Z,55.30
2019-04-21T00:46:09.897Z,55.20
2019-04-21T00:48:53.592Z,55.40
2019-04-21T00:51:49.876Z,54.90
2019-04-21T00:54:04.007Z,55.80
2019-04-21T00:56:27.614Z,56.10
2019-04-21T00:58:59.829Z,56.10
2019-04-21T01:01:31.264Z,56.60
2019-04-21T01:04:04.819Z,56.00
2019-04-21T01:06:35.178Z,56.20
2019-04-21T01:09:02.722Z,57.70
2019-04-21T01:11:33.273Z,56.90
2019-04-21T01:14:05.561Z,56.40
2019-04-21T01:16:39.533Z,58.40
2019-04-21T01:19:06.302Z,58.60
2019-04-21T01:21:18.002Z,58.80
2019-04-21T01:23:48.538Z,58.80
2019-04-21T01:26:31.090Z,58.90
2019-04-21T01:29:10.406Z,60.30
2019-04-21T01:31:36.314Z,60.40
2019-04-21T01:34:14.847Z,61.50
2019-04-21T01:36:42.955Z,61.80
2019-04-21T01:39:19.632Z,61.90
2019-04-21T01:41:45.022Z,61.80
2019-04-21T01:44:23.863Z,61.70
2019-04-21T01:46:39.297Z,61.00
2019-04-21T01:49:11.446Z,60.50
2019-04-21T01:52:02.819Z,61.90
2019-04-21T01:54:41.766Z,62.10
2019-04-21T01:57:17.677Z,62.00
2019-04-21T01:59:47.355Z,60.50
2019-04-21T02:02:22.973Z,60.10
2019-04-21T02:05:06.988Z,60.90
2019-04-21T02:07:27.189Z,61.60
2019-04-21T02:09:58.857Z,61.80
2019-04-21T02:12:33.375Z,62.20
2019-04-21T02:15:06.579Z,61.40
2019-04-21T02:17:29.789Z,60.70
2019-04-21T02:19:56.403Z,59.90
2019-04-21T02:22:47.851Z,60.80
2019-04-21T02:25:08.330Z,62.10
2019-04-21T02:27:36.443Z,62.80
2019-04-21T02:30:22.186Z,63.60
2019-04-21T02:33:08.777Z,63.20
2019-04-21T02:35:44.689Z,62.70
2019-04-21T02:40:29.816Z,62.70
2019-04-21T02:45:28.424Z,62.80
2019-04-21T02:50:28.796Z,62.30
2019-04-21T03:00:34.714Z,62.40
2019-04-21T03:03:37.955Z,62.20
2019-04-21T03:06:24.290Z,62.40
2019-04-21T03:08:54.401Z,62.70
2019-04-21T03:11:14.471Z,61.30
2019-04-21T03:13:57.291Z,61.20
2019-04-21T03:16:23.487Z,62.60
2019-04-21T03:19:07.207Z,64.40
2019-04-21T03:21:26.572Z,64.70
2019-04-21T03:23:58.056Z,63.70
2019-04-21T03:28:56.282Z,63.50
2019-04-21T03:31:55.445Z,63.10
2019-04-21T03:37:00.491Z,63.60
2019-04-21T03:38:53.322Z,64.60
2019-04-21T03:41:54.264Z,64.90
2019-04-21T03:44:06.574Z,64.40
2019-04-21T03:46:35.712Z,64.80
2019-04-21T03:49:11.794Z,62.90
2019-04-21T03:51:37.134Z,62.80
2019-04-21T03:54:09.251Z,64.60
2019-04-21T03:59:03.738Z,64.20
2019-04-21T04:02:06.028Z,65.10
2019-04-21T04:04:44.114Z,65.40
2019-04-21T04:07:49.775Z,64.40
2019-04-21T04:12:48.343Z,63.80
2019-04-21T04:15:12.162Z,63.60
2019-04-21T04:17:40.728Z,64.30
2019-04-21T04:20:22.439Z,65.00
2019-04-21T04:22:51.841Z,64.50
2019-04-21T04:30:22.314Z,66.40
2019-04-21T04:35:25.920Z,65.80
2019-04-21T04:37:55.511Z,65.10
2019-04-21T04:40:30.853Z,66.40
2019-04-21T04:43:17.542Z,67.60
2019-04-21T04:48:19.703Z,65.80
2019-04-21T04:50:49.696Z,63.90
2019-04-21T04:53:22.394Z,64.20
2019-04-21T04:58:25.120Z,65.00
2019-04-21T05:00:58.084Z,65.90
2019-04-21T05:03:39.572Z,66.50
2019-04-21T05:16:41.031Z,67.00
2019-04-21T05:21:45.469Z,67.10
2019-04-21T05:24:14.497Z,67.50
2019-04-21T05:26:46.166Z,67.40
2019-04-21T05:29:11.069Z,67.50
2019-04-21T05:31:58.405Z,67.20
2019-04-21T05:34:31.934Z,66.90
2019-04-21T05:37:10.751Z,67.80
2019-04-21T05:39:57.425Z,68.10
2019-04-21T05:42:30.426Z,67.70
2019-04-21T05:45:07.843Z,66.60
2019-04-21T05:48:02.692Z,66.10
2019-04-21T05:50:21.724Z,66.10
2019-04-21T05:52:51.655Z,66.70
2019-04-21T05:55:36.022Z,66.00
2019-04-21T05:58:04.155Z,64.80
2019-04-21T06:00:56.044Z,64.40
2019-04-21T06:03:10.153Z,65.00
2019-04-21T06:05:55.647Z,63.60
2019-04-21T06:08:13.347Z,62.50
2019-04-21T06:10:41.891Z,60.80
2019-04-21T06:15:50.292Z,58.50
2019-04-21T06:18:21.714Z,57.60
2019-04-21T06:20:47.988Z,56.60
2019-04-21T06:23:22.428Z,55.80
2019-04-21T06:28:19.280Z,55.80
2019-04-21T06:30:59.284Z,55.90
2019-04-21T06:33:21.385Z,55.20
2019-04-21T06:36:31.038Z,53.60
2019-04-21T06:39:04.628Z,53.10
2019-04-21T06:44:20.421Z,52.70
2019-04-21T06:46:40.784Z,52.20
2019-04-21T06:51:30.595Z,52.00
2019-04-21T06:54:06.583Z,49.90
2019-04-21T06:59:07.003Z,50.20
2019-04-21T07:01:38.995Z,52.00
2019-04-21T07:06:44.107Z,51.00
2019-04-21T07:11:39.377Z,50.20
2019-04-21T07:14:25.659Z,49.50
2019-04-21T07:16:47.716Z,47.70
2019-04-21T07:19:27.810Z,43.30
2019-04-21T07:21:45.439Z,38.60
2019-04-21T07:24:21.746Z,36.80
2019-04-21T07:26:50.781Z,36.30
2019-04-21T07:29:25.882Z,30.90
2019-04-21T07:34:30.562Z,24.80
2019-04-21T07:36:55.881Z,21.80
2019-04-21T07:39:19.488Z,22.40
2019-04-21T07:41:48.406Z,23.20
2019-04-21T07:44:20.943Z,23.80
2019-04-21T07:46:44.093Z,26.20
2019-04-21T07:49:48.818Z,28.40
2019-04-21T07:52:37.689Z,29.10
2019-04-21T07:55:12.961Z,30.20
2019-04-21T07:57:37.682Z,30.30
2019-04-21T08:00:16.034Z,29.50
2019-04-21T08:02:34.286Z,29.20
2019-04-21T08:05:19.896Z,29.30
2019-04-21T08:07:49.408Z,28.10
2019-04-21T08:10:03.439Z,27.90
2019-04-21T08:12:29.928Z,26.40
2019-04-21T08:15:15.720Z,24.60
2019-04-21T08:17:42.605Z,24.40
2019-04-21T08:20:09.337Z,24.00
2019-04-21T08:22:46.717Z,23.70
2019-04-21T08:25:18.216Z,23.00
2019-04-21T08:27:47.786Z,22.90
2019-04-21T08:30:21.147Z,24.10
2019-04-21T08:33:16.244Z,23.40
2019-04-21T08:37:49.552Z,23.50
2019-04-21T08:40:27.298Z,22.70
2019-04-21T08:42:50.784Z,23.00
2019-04-21T08:47:51.999Z,23.10
2019-04-21T08:50:25.573Z,23.30
2019-04-21T08:55:49.241Z,22.70
2019-04-21T08:58:41.533Z,23.80
2019-04-21T09:01:23.807Z,22.50
2019-04-21T09:04:01.217Z,23.40
2019-04-21T09:06:50.019Z,22.60
2019-04-21T09:09:03.646Z,23.30
2019-04-21T09:11:28.746Z,22.50
2019-04-21T09:14:03.007Z,22.80
2019-04-21T09:16:30.706Z,25.00
2019-04-21T09:19:04.512Z,21.80
2019-04-21T09:21:38.932Z,21.40
2019-04-21T09:24:13.295Z,20.60
2019-04-21T09:26:34.371Z,21.50
2019-04-21T09:29:04.377Z,20.40
2019-04-21T09:31:30.986Z,21.80
2019-04-21T09:34:00.295Z,20.10
2019-04-21T09:36:35.264Z,21.00
2019-04-21T09:39:05.553Z,20.60
2019-04-21T09:41:29.703Z,19.60
2019-04-21T09:44:01.243Z,20.40
2019-04-21T09:46:35.464Z,18.90
2019-04-21T09:49:06.496Z,19.50
2019-04-21T09:51:35.231Z,20.10
2019-04-21T09:54:10.515Z,21.30
2019-04-21T09:56:45.452Z,22.00
2019-04-21T09:59:15.178Z,20.70
2019-04-21T10:01:49.061Z,19.60
2019-04-21T10:04:09.834Z,19.00
2019-04-21T10:06:39.527Z,20.10
2019-04-21T10:09:14.861Z,19.80
2019-04-21T10:11:43.742Z,19.40
2019-04-21T10:14:13.820Z,19.20
2019-04-21T10:17:05.307Z,18.40
2019-04-21T10:19:34.604Z,19.90
2019-04-21T10:22:04.448Z,18.40
2019-04-21T10:24:36.174Z,18.30
2019-04-21T10:27:17.152Z,17.30
2019-04-21T10:29:47.237Z,18.60
2019-04-21T10:32:21.302Z,18.00
2019-04-21T10:34:49.592Z,18.10
2019-04-21T10:37:19.027Z,19.40
2019-04-21T10:39:49.551Z,19.10
2019-04-21T10:42:19.507Z,18.10
2019-04-21T10:44:49.387Z,18.00
2019-04-21T10:47:18.752Z,19.20
2019-04-21T10:49:48.677Z,19.50
2019-04-21T10:52:28.975Z,19.40
2019-04-21T10:55:20.868Z,19.00
2019-04-21T10:57:30.978Z,18.50
2019-04-21T11:00:01.376Z,17.40
2019-04-21T11:02:41.054Z,16.70
2019-04-21T11:05:10.425Z,17.30
2019-04-21T11:08:08.956Z,17.30
2019-04-21T11:10:29.797Z,17.10
2019-04-21T11:12:59.329Z,18.00
2019-04-21T11:15:29.449Z,16.50
2019-04-21T11:17:59.868Z,17.20
2019-04-21T11:20:29.162Z,17.50
2019-04-21T11:22:59.602Z,17.40
2019-04-21T11:25:30.333Z,17.20
2019-04-21T11:28:29.274Z,16.70
2019-04-21T11:30:58.613Z,16.80
2019-04-21T11:33:29.064Z,16.20
2019-04-21T11:35:59.354Z,17.00
2019-04-21T11:39:06.150Z,18.70
2019-04-21T11:41:21.706Z,16.90
2019-04-21T11:43:51.069Z,15.20
2019-04-21T11:46:20.522Z,15.70
2019-04-21T11:48:50.381Z,16.40
2019-04-21T11:51:20.119Z,16.90
2019-04-21T11:53:50.684Z,15.60
2019-04-21T11:56:20.874Z,16.40
2019-04-21T11:58:50.241Z,16.10
2019-04-21T12:01:19.493Z,16.10
2019-04-21T12:03:49.604Z,17.00
2019-04-21T12:06:19.440Z,16.40
2019-04-21T12:08:51.474Z,16.50
2019-04-21T12:11:20.939Z,16.80
2019-04-21T12:13:50.397Z,15.60
2019-04-21T12:16:20.813Z,15.70
2019-04-21T12:18:51.205Z,15.40
2019-04-21T12:21:21.545Z,15.00
2019-04-21T12:23:50.737Z,15.00
2019-04-21T12:26:20.103Z,14.40
2019-04-21T12:28:50.104Z,14.20
2019-04-21T12:31:39.272Z,14.20
2019-04-21T12:34:12.070Z,16.70
2019-04-21T12:36:42.081Z,14.60
2019-04-21T12:39:13.058Z,15.20
2019-04-21T12:41:44.637Z,14.90
2019-04-21T12:44:14.888Z,15.30
2019-04-21T12:46:44.047Z,14.50
2019-04-21T12:49:13.803Z,14.50
2019-04-21T12:51:44.104Z,15.00
2019-04-21T12:54:13.558Z,15.70
2019-04-21T12:56:43.356Z,14.50
2019-04-21T12:59:12.933Z,15.40
2019-04-21T13:01:43.119Z,15.50
2019-04-21T13:04:13.532Z,15.90
2019-04-21T13:06:43.572Z,15.60
2019-04-21T13:09:16.164Z,14.20
2019-04-21T13:11:43.886Z,14.50
2019-04-21T13:14:13.661Z,16.70
2019-04-21T13:16:43.419Z,15.10
2019-04-21T13:19:13.381Z,14.90
2019-04-21T13:21:45.845Z,16.40
2019-04-21T13:24:15.937Z,14.80
2019-04-21T13:26:50.919Z,15.70
2019-04-21T13:29:16.612Z,15.70
2019-04-21T13:31:45.800Z,15.90
2019-04-21T13:34:15.869Z,16.40
2019-04-21T13:36:45.562Z,14.80
2019-04-21T13:40:07.861Z,16.60
2019-04-21T13:42:24.080Z,16.30
2019-04-21T13:44:46.621Z,15.90
2019-04-21T13:47:16.799Z,15.60
2019-04-21T13:49:47.515Z,16.80
2019-04-21T13:52:16.865Z,16.50
2019-04-21T13:54:47.351Z,15.90
2019-04-21T13:57:16.828Z,16.00
2019-04-21T13:59:46.425Z,15.40
2019-04-21T14:02:18.564Z,14.00
2019-04-21T14:04:47.781Z,15.20
2019-04-21T14:07:18.326Z,15.90
2019-04-21T14:09:56.082Z,15.20
2019-04-21T14:12:19.313Z,16.90
2019-04-21T14:14:48.580Z,16.50
2019-04-21T14:17:19.086Z,17.10
2019-04-21T14:19:48.994Z,17.10
2019-04-21T14:22:22.221Z,17.70
2019-04-21T14:24:52.034Z,16.90
2019-04-21T14:27:21.411Z,15.90
2019-04-21T14:29:51.391Z,17.60
2019-04-21T14:32:22.271Z,17.60
2019-04-21T14:34:53.821Z,18.40
2019-04-21T14:37:22.695Z,18.10
2019-04-21T14:39:59.876Z,18.10
2019-04-21T14:42:24.329Z,17.60
2019-04-21T14:44:54.712Z,17.60
2019-04-21T14:47:42.107Z,18.10
2019-04-21T14:50:36.844Z,18.10
2019-04-21T14:53:20.194Z,18.00
2019-04-21T14:55:51.105Z,18.40
2019-04-21T14:58:21.190Z,18.40
2019-04-21T15:01:04.119Z,18.90
2019-04-21T15:03:34.239Z,18.60
2019-04-21T15:06:03.733Z,19.10
2019-04-21T15:08:33.411Z,19.20
2019-04-21T15:11:03.218Z,17.90
2019-04-21T15:13:32.916Z,19.00
2019-04-21T15:16:02.733Z,18.20
2019-04-21T15:18:32.809Z,19.70
2019-04-21T15:21:03.635Z,19.20
2019-04-21T15:23:33.920Z,17.90
2019-04-21T15:26:04.166Z,18.40
2019-04-21T15:28:35.562Z,18.70
2019-04-21T15:31:04.942Z,20.10
2019-04-21T15:33:35.002Z,20.00
2019-04-21T15:36:05.074Z,20.10
2019-04-21T15:38:35.803Z,19.20
2019-04-21T15:41:10.147Z,18.00
2019-04-21T15:43:36.508Z,18.20
2019-04-21T15:46:06.795Z,18.00
2019-04-21T15:48:37.059Z,18.20
2019-04-21T15:51:08.639Z,16.70
2019-04-21T15:53:37.845Z,17.10
2019-04-21T15:56:26.862Z,17.40
2019-04-21T15:59:13.001Z,18.60
2019-04-21T16:02:01.062Z,18.70
2019-04-21T16:04:30.709Z,19.50
2019-04-21T16:07:01.556Z,19.30
2019-04-21T16:09:33.042Z,18.60
2019-04-21T16:12:04.101Z,19.50
2019-04-21T16:14:34.501Z,18.90
2019-04-21T16:17:05.643Z,18.20
2019-04-21T16:19:36.227Z,17.60
2019-04-21T16:22:06.482Z,17.70
2019-04-21T16:24:54.903Z,18.50
2019-04-21T16:27:25.588Z,18.30
2019-04-21T16:29:55.089Z,19.30
2019-04-21T16:32:24.403Z,19.40
2019-04-21T16:34:58.965Z,19.60
2019-04-21T16:37:25.686Z,20.10
2019-04-21T16:39:55.717Z,20.60
2019-04-21T16:42:25.121Z,18.70
2019-04-21T16:44:54.792Z,18.90
2019-04-21T16:47:24.225Z,19.50
2019-04-21T16:49:53.959Z,19.10
2019-04-21T16:52:28.123Z,18.60
2019-04-21T16:55:05.113Z,19.30
2019-04-21T16:57:39.830Z,19.20
2019-04-21T17:00:26.844Z,18.90
2019-04-21T17:02:46.338Z,19.00
2019-04-21T17:05:16.291Z,18.00
2019-04-21T17:07:47.004Z,18.80
2019-04-21T17:10:17.027Z,18.60
2019-04-21T17:12:47.787Z,19.00
2019-04-21T17:15:34.078Z,19.40
2019-04-21T17:18:06.067Z,19.20
2019-04-21T17:20:34.097Z,18.90
2019-04-21T17:22:51.496Z,19.30
2019-04-21T17:25:24.302Z,19.10
2019-04-21T17:27:53.252Z,19.10
2019-04-21T17:30:24.232Z,18.80
2019-04-21T17:32:54.130Z,18.70
2019-04-21T17:35:24.844Z,19.00
2019-04-21T17:37:54.347Z,19.40
2019-04-21T17:40:26.784Z,18.90
2019-04-21T17:43:02.050Z,19.30
2019-04-21T17:45:28.882Z,19.20
2019-04-21T17:48:04.575Z,20.50
2019-04-21T17:50:57.558Z,19.10
2019-04-21T17:53:43.809Z,19.30
2019-04-21T17:56:35.872Z,24.00
2019-04-21T17:58:58.516Z,25.40
2019-04-21T18:01:32.027Z,24.70
2019-04-21T18:04:07.779Z,21.60
2019-04-21T18:06:42.294Z,22.80
2019-04-21T18:09:24.511Z,25.10
2019-04-21T18:11:46.889Z,27.20
2019-04-21T18:13:57.531Z,26.10
2019-04-21T18:16:35.209Z,28.50
2019-04-21T18:18:59.056Z,27.40
2019-04-21T18:21:34.810Z,27.30
2019-04-21T18:24:15.510Z,27.90
2019-04-21T18:26:47.961Z,28.10
2019-04-21T18:29:11.662Z,29.10
2019-04-21T18:31:48.058Z,30.00
2019-04-21T18:34:32.367Z,30.00
2019-04-21T18:37:07.815Z,30.20
2019-04-21T18:39:57.496Z,31.40
2019-04-21T18:42:48.170Z,32.00
2019-04-21T18:45:54.884Z,31.80
2019-04-21T18:48:27.126Z,32.20
2019-04-21T18:51:18.958Z,32.20
2019-04-21T18:54:22.540Z,31.10
2019-04-21T18:56:33.739Z,32.70
2019-04-21T18:59:04.436Z,32.70
2019-04-21T19:01:36.528Z,33.80
2019-04-21T19:04:12.458Z,33.50
2019-04-21T19:06:54.607Z,33.90
2019-04-21T19:09:41.382Z,34.40
2019-04-21T19:11:59.202Z,35.00
2019-04-21T19:14:32.178Z,35.20
2019-04-21T19:17:29.121Z,35.70
2019-04-21T19:19:44.206Z,35.90
2019-04-21T19:22:04.946Z,35.10
2019-04-21T19:24:33.186Z,35.70
2019-04-21T19:27:11.946Z,36.30
2019-04-21T19:29:57.297Z,36.30
2019-04-21T19:32:08.805Z,36.20
2019-04-21T19:34:24.569Z,36.20
2019-04-21T19:37:00.743Z,35.50
2019-04-21T19:39:39.103Z,36.30
2019-04-21T19:42:03.107Z,36.30
2019-04-21T19:44:42.323Z,36.50
2019-04-21T19:47:17.216Z,35.80
2019-04-21T19:49:49.683Z,36.20
2019-04-21T19:52:05.509Z,36.60
2019-04-21T19:54:36.312Z,37.90
2019-04-21T19:57:01.179Z,37.70
2019-04-21T19:59:36.701Z,37.00
2019-04-21T20:02:02.475Z,36.60
2019-04-21T20:04:38.501Z,37.90
2019-04-21T20:07:22.109Z,37.80
2019-04-21T20:09:50.071Z,38.00
2019-04-21T20:12:29.368Z,37.70
2019-04-21T20:15:08.856Z,36.80
2019-04-21T20:17:17.641Z,36.90
2019-04-21T20:19:38.430Z,37.70
2019-04-21T20:22:09.222Z,37.60
2019-04-21T20:24:40.026Z,35.70
2019-04-21T20:27:19.081Z,36.90
2019-04-21T20:29:56.231Z,38.20
2019-04-21T20:32:31.680Z,37.50
2019-04-21T20:35:00.917Z,37.80
2019-04-21T20:37:32.080Z,38.40
2019-04-21T20:39:50.272Z,38.10
2019-04-21T20:42:29.359Z,38.80
2019-04-21T20:45:25.209Z,38.70
2019-04-21T20:47:25.578Z,39.90
2019-04-21T20:50:05.663Z,39.60
2019-04-21T20:52:43.343Z,40.50
2019-04-21T20:55:07.478Z,40.20
2019-04-21T20:57:35.326Z,40.50
2019-04-21T21:00:13.679Z,41.30
2019-04-21T21:02:48.904Z,41.10
2019-04-21T21:05:02.964Z,41.40
2019-04-21T21:07:45.807Z,41.80
2019-04-21T21:10:16.630Z,41.30
2019-04-21T21:12:51.148Z,40.90
2019-04-21T21:15:09.994Z,41.10
2019-04-21T21:17:53.287Z,40.90
2019-04-21T21:20:30.836Z,41.50
2019-04-21T21:22:48.086Z,41.00
2019-04-21T21:25:32.146Z,41.70
2019-04-21T21:27:49.475Z,42.10
2019-04-21T21:30:24.313Z,42.30
2019-04-21T21:32:54.416Z,42.60
2019-04-21T21:35:24.231Z,43.00
2019-04-21T21:37:59.610Z,42.80
2019-04-21T21:40:33.027Z,43.30
2019-04-21T21:42:45.702Z,43.50
2019-04-21T21:45:18.373Z,42.90
2019-04-21T21:48:01.463Z,42.60
2019-04-21T21:50:26.151Z,43.10
2019-04-21T21:52:59.935Z,43.70
2019-04-21T21:55:21.407Z,43.70
2019-04-21T21:57:55.892Z,44.40
2019-04-21T22:00:26.166Z,44.80
2019-04-21T22:02:58.504Z,45.90
2019-04-21T22:05:29.971Z,45.70
2019-04-21T22:07:58.457Z,45.50
2019-04-21T22:10:27.804Z,44.90
2019-04-21T22:13:06.064Z,45.30
2019-04-21T22:15:33.242Z,46.10
2019-04-21T22:18:19.412Z,46.50
2019-04-21T22:20:50.726Z,46.30
2019-04-21T22:23:11.345Z,46.80
2019-04-21T22:25:39.482Z,47.80
2019-04-21T22:28:05.094Z,48.50
2019-04-21T22:30:40.336Z,49.10
2019-04-21T22:33:08.907Z,49.00
2019-04-21T22:35:42.591Z,49.50
2019-04-21T22:38:19.824Z,48.90
2019-04-21T22:40:50.644Z,48.10
2019-04-21T22:43:21.785Z,49.10
2019-04-21T22:45:43.151Z,49.90
2019-04-21T22:48:16.600Z,51.10
2019-04-21T22:50:44.532Z,51.30
2019-04-21T22:53:15.846Z,50.20
2019-04-21T22:55:45.167Z,50.90
2019-04-21T22:58:17.063Z,50.80
2019-04-21T23:00:51.244Z,51.10
2019-04-21T23:03:21.428Z,51.60
2019-04-21T23:05:50.030Z,52.30
2019-04-21T23:08:22.549Z,53.00
2019-04-21T23:10:57.891Z,52.30
2019-04-21T23:13:23.493Z,52.40
2019-04-21T23:15:57.232Z,52.80
2019-04-21T23:18:37.482Z,52.90
2019-04-21T23:21:10.420Z,52.90
2019-04-21T23:23:44.234Z,53.00
2019-04-21T23:26:20.924Z,53.00
2019-04-21T23:28:51.060Z,52.40
2019-04-21T23:31:21.864Z,52.50
2019-04-21T23:33:31.495Z,52.40
2019-04-21T23:36:08.510Z,53.40
2019-04-21T23:38:38.774Z,52.50
2019-04-21T23:41:07.012Z,52.80
2019-04-21T23:43:35.415Z,52.60
2019-04-21T23:46:10.415Z,53.10
2019-04-21T23:48:51.825Z,52.40
2019-04-21T23:51:16.016Z,51.80
2019-04-21T23:53:39.359Z,51.80
2019-04-21T23:56:08.972Z,51.30
2019-04-21T23:58:39.925Z,52.50
